Impacts TAF Board
For situational awareness. Not to be used for flight planning purposes.
IDs:

KDHT - Dalhart Muni, TX, US

Issued at 1749 UTC 01 Feb 2023
Updated at 2202 UTC 01 Feb 2023
Potential Impact None Slight Moderate High
Time2153Z 01/23Z 02/00Z 02/01Z 02/02Z 02/03Z 02/04Z 02/05Z 02/06Z 02/07Z 02/08Z 02/09Z 02/10Z 02/11Z>>
Type OBS PRVL PRVL PRVL PRVL PRVL PRVL PRVL PRVL PRVL PRVL PRVL PRVL PRVL
VIS 10 >6 >6 >6 >6 >6 >6 >6 >6 >6 >6 >6 >6 >6
CIG -- 180 20 20 20 20 20 20 -- -- -- -- -- --
Cover CLR BKN BKN BKN BKN BKN BKN BKN SCT SCT SCT SCT SCT SCT
FltCat VFR VFR MVFR MVFR MVFR MVFR MVFR MVFR VFR VFR VFR VFR VFR VFR
WX -- -- -- -- -- -- -- -- -- -- -- -- -- --
WDir 150 220 160 160 160 160 160 160 340 340 340 340 340 340
WSpd 7 8 5 5 5 5 5 5 6 6 6 6 6 6
WGst -- -- -- -- -- -- -- -- -- -- -- -- -- --
WSHgt -- -- -- -- -- -- -- -- -- -- -- -- -- --
WSDir -- -- -- -- -- -- -- -- -- -- -- -- -- --
WSSpd -- -- -- -- -- -- -- -- -- -- -- -- -- --
R03/21
XWnd -7 -1 -5 -5 -5 -5 -5 -5 5 5 5 5 5 5
HWnd -2 -8 -2 -2 -2 -2 -2 -2 3 3 3 3 3 3
R17/35
XWnd 4 -5 2 2 2 2 2 2 -2 -2 -2 -2 -2 -2
HWnd 6 6 5 5 5 5 5 5 -6 -6 -6 -6 -6 -6

NOTE: LAMP data beyond the time of the TAF data is denoted as LAMP in Type and colored magenta.

Raw TAF
KDHT 011749Z 0118/0218 22008KT P6SM FEW007 BKN180
  FM020000 16005KT P6SM BKN020
  FM020600 34006KT P6SM SCT020


Raw METAR
KDHT 012153Z AUTO 15007KT 10SM CLR 06/M04 A3010 RMK AO2 SLP199 T00561039
KDHT 012053Z AUTO 16008KT 10SM CLR 06/M03 A3011 RMK AO2 SLP201 T00611033 55016
KDHT 011953Z AUTO VRB04KT 10SM CLR 04/M03 A3010 RMK AO2 SLP201 T00441028

METAR Board
Radar Display
Forecast Discussion

For situational awareness. Not to be used for flight planning purposes.